Time;durP1;ratioP1;P1;durP2;ratioP2;P2;SDS_P1;SDS_P2;PMS_P1;PMS_P2;Temp;Humidity;BMP_temperature;BMP_pressure;BME280_temperature;BME280_humidity;BME280_pressure;Samples;Min_cycle;Max_cycle;Signal;HPM_P1;HPM_P2
2022/11/20 00:01:05;;;;;;;0.60;0.60;;;;;;;13.34;100.00;98827.72;5059103;28;20204;-63
2022/11/20 00:03:32;;;;;;;0.40;0.40;;;;;;;13.35;100.00;98821.63;5058579;28;20209;-62
2022/11/20 00:06:02;;;;;;;0.80;0.80;;;;;;;13.21;100.00;98830.97;5062339;28;20668;-62
2022/11/20 00:08:29;;;;;;;0.40;0.40;;;;;;;13.21;100.00;98836.13;5062732;28;20228;-62
2022/11/20 00:10:55;;;;;;;0.50;0.50;;;;;;;13.24;100.00;98812.81;5052260;28;20201;-65
2022/11/20 00:13:22;;;;;;;0.50;0.50;;;;;;;13.10;100.00;98819.47;5056766;28;20204;-63
2022/11/20 00:15:49;;;;;;;0.40;0.40;;;;;;;13.18;100.00;98842.25;5061090;28;20208;-62
2022/11/20 00:18:16;;;;;;;0.60;0.60;;;;;;;13.20;100.00;98849.91;5052229;28;20201;-66
2022/11/20 00:20:42;;;;;;;0.50;0.50;;;;;;;13.03;100.00;98871.25;5057361;28;20588;-65
2022/11/20 00:23:12;;;;;;;0.50;0.50;;;;;;;12.92;100.00;98829.81;5056981;28;20668;-68
2022/11/20 00:25:38;;;;;;;0.80;0.80;;;;;;;12.88;100.00;98818.00;5058697;28;20212;-65
2022/11/20 00:28:05;;;;;;;1.37;1.37;;;;;;;12.89;100.00;98805.03;5051266;28;20217;-68
2022/11/20 00:30:32;;;;;;;0.70;0.70;;;;;;;12.99;100.00;98831.16;5056495;28;20199;-65
2022/11/20 00:32:59;;;;;;;0.50;0.50;;;;;;;12.99;100.00;98831.16;5065087;28;20646;-65
2022/11/20 00:35:25;;;;;;;0.80;0.80;;;;;;;13.04;100.00;98824.06;5060494;28;20197;-67
2022/11/20 00:37:52;;;;;;;0.90;0.90;;;;;;;13.00;100.00;98822.53;5065146;28;20204;-65
2022/11/20 00:40:20;;;;;;;0.53;0.53;;;;;;;13.00;100.00;98836.22;5054834;28;20203;-65
2022/11/20 00:42:47;;;;;;;0.63;0.63;;;;;;;13.01;100.00;98824.22;5050540;28;20200;-65
2022/11/20 00:45:14;;;;;;;0.80;0.80;;;;;;;12.93;100.00;98788.56;5063847;28;20772;-66
2022/11/20 00:47:41;;;;;;;0.50;0.50;;;;;;;13.10;100.00;98819.47;5055779;28;20201;-65
2022/11/20 00:50:08;;;;;;;0.60;0.60;;;;;;;13.09;100.00;98811.81;5061316;28;20212;-65
2022/11/20 00:52:35;;;;;;;0.47;0.47;;;;;;;13.16;100.00;98813.19;5066471;28;20204;-65
2022/11/20 00:55:02;;;;;;;0.87;0.87;;;;;;;13.20;100.00;98825.00;5056990;28;20211;-65
2022/11/20 00:57:30;;;;;;;0.50;0.50;;;;;;;13.09;100.00;98822.09;5068761;28;20201;-65
2022/11/20 00:59:57;;;;;;;0.60;0.60;;;;;;;13.01;100.00;98819.06;5058600;28;20254;-65
2022/11/20 01:02:23;;;;;;;1.00;1.00;;;;;;;12.96;100.00;98821.00;5050857;28;20635;-62
2022/11/20 01:04:50;;;;;;;0.57;0.57;;;;;;;12.91;100.00;98812.69;5063403;28;20203;-63
2022/11/20 01:07:17;;;;;;;0.40;0.40;;;;;;;12.91;100.00;98813.53;5061071;28;20576;-62
2022/11/20 01:09:44;;;;;;;0.53;0.53;;;;;;;12.88;100.00;98807.72;5062793;28;20661;-65
2022/11/20 01:12:10;;;;;;;0.60;0.60;;;;;;;12.92;100.00;98815.22;5056275;28;20649;-65
2022/11/20 01:14:39;;;;;;;0.70;0.70;;;;;;;12.94;100.00;98818.53;5061852;28;20257;-65
2022/11/20 01:17:06;;;;;;;0.50;0.50;;;;;;;12.99;100.00;98811.41;5054936;28;20200;-66
2022/11/20 01:19:32;;;;;;;0.40;0.40;;;;;;;12.89;100.00;98788.81;5058303;28;20209;-66
2022/11/20 01:21:59;;;;;;;0.70;0.70;;;;;;;12.99;100.00;98800.28;5061327;28;20216;-65
2022/11/20 01:24:26;;;;;;;0.73;0.73;;;;;;;12.90;100.00;98793.00;5059908;28;20205;-65
2022/11/20 01:26:53;;;;;;;0.97;0.97;;;;;;;12.91;100.00;98797.25;5056625;28;20267;-65
2022/11/20 01:29:22;;;;;;;0.60;0.60;;;;;;;12.91;100.00;98792.13;5061819;28;20581;-65
2022/11/20 01:31:52;;;;;;;1.07;1.07;;;;;;;12.90;100.00;98798.16;5063007;28;20581;-65
2022/11/20 01:34:21;;;;;;;0.53;0.53;;;;;;;12.88;100.00;98798.25;5054687;28;20208;-65
2022/11/20 01:36:49;;;;;;;0.57;0.57;;;;;;;12.93;100.00;98801.41;5065668;28;20283;-65
2022/11/20 01:39:18;;;;;;;0.77;0.77;;;;;;;12.90;100.00;98780.16;5065014;28;20192;-65
2022/11/20 01:44:53;;;;;;;0.50;0.50;;;;;;;12.83;100.00;98771.06;5059409;28;20672;-65
2022/11/20 01:47:28;;;;;;;0.93;0.93;;;;;;;12.81;100.00;98772.91;5058087;28;20207;-63
2022/11/20 01:50:00;;;;;;;0.60;0.60;;;;;;;12.75;100.00;98766.31;5057399;28;20211;-63
2022/11/20 01:52:32;;;;;;;0.40;0.40;;;;;;;12.83;100.00;98783.94;5061722;28;20250;-63
2022/11/20 01:55:04;;;;;;;0.43;0.43;;;;;;;12.69;100.00;98776.91;5055437;28;20239;-63
2022/11/20 01:57:34;;;;;;;0.90;0.90;;;;;;;12.66;100.00;98758.22;5050145;28;20630;-63
2022/11/20 02:00:06;;;;;;;0.73;0.73;;;;;;;12.71;100.00;98775.09;5062180;28;20203;-62
2022/11/20 02:02:35;;;;;;;0.50;0.50;;;;;;;12.61;100.00;98769.56;5057882;28;20205;-63
2022/11/20 02:05:11;;;;;;;0.70;0.70;;;;;;;12.50;100.00;98774.38;5066679;28;20196;-65
2022/11/20 02:07:39;;;;;;;0.90;0.90;;;;;;;12.35;100.00;98740.84;5058697;28;20258;-62
2022/11/20 02:10:06;;;;;;;0.43;0.43;;;;;;;12.45;100.00;98747.22;5061200;28;20270;-63
2022/11/20 02:15:18;;;;;;;0.50;0.50;;;;;;;12.42;100.00;98732.78;5052436;28;20281;-65
2022/11/20 02:17:46;;;;;;;0.70;0.70;;;;;;;12.51;100.00;98736.63;5060505;28;20220;-64
2022/11/20 02:20:13;;;;;;;1.53;1.53;;;;;;;12.34;100.00;98723.78;5057673;28;20196;-63
2022/11/20 02:22:49;;;;;;;0.33;0.33;;;;;;;12.44;100.00;98730.97;5061235;28;20196;-66
2022/11/20 02:25:18;;;;;;;7.93;1.03;;;;;;;12.50;100.00;98725.53;5066226;28;20579;-63
2022/11/20 02:27:45;;;;;;;1.03;1.03;;;;;;;12.52;100.00;98728.88;5055482;28;20207;-63
2022/11/20 02:30:13;;;;;;;0.63;0.63;;;;;;;12.59;100.00;98726.84;5052654;28;20243;-63
2022/11/20 02:32:41;;;;;;;0.50;0.50;;;;;;;12.66;100.00;98733.34;5063755;28;20581;-63
2022/11/20 02:35:09;;;;;;;0.63;0.63;;;;;;;12.62;100.00;98712.09;5063061;28;20196;-64
2022/11/20 02:37:39;;;;;;;0.60;0.60;;;;;;;12.78;100.00;98734.47;5064890;28;20645;-63
2022/11/20 02:40:07;;;;;;;0.70;0.70;;;;;;;12.84;100.00;98734.16;5060669;28;20197;-63
2022/11/20 02:42:36;;;;;;;0.70;0.70;;;;;;;12.88;100.00;98740.81;5055958;28;20208;-64
2022/11/20 02:45:02;;;;;;;0.50;0.50;;;;;;;12.74;100.00;98743.22;5051100;28;20285;-63
2022/11/20 02:47:29;;;;;;;0.50;0.50;;;;;;;12.83;100.00;98747.91;5058239;28;20262;-63
2022/11/20 02:49:56;;;;;;;0.90;0.90;;;;;;;12.88;100.00;98753.69;5061460;28;20220;-63
2022/11/20 02:52:23;;;;;;;0.73;0.73;;;;;;;12.90;100.00;98749.28;5058727;28;20418;-63
2022/11/20 02:54:50;;;;;;;0.50;0.50;;;;;;;12.83;100.00;98759.03;5059709;28;20630;-63
2022/11/20 02:57:16;;;;;;;0.97;0.97;;;;;;;12.77;100.00;98753.38;5061907;28;20212;-64
2022/11/20 02:59:45;;;;;;;1.03;1.03;;;;;;;12.62;100.00;98740.38;5055088;28;20205;-63
2022/11/20 03:02:11;;;;;;;0.50;0.50;;;;;;;12.69;100.00;98752.94;5060728;28;20257;-64
2022/11/20 03:04:38;;;;;;;0.53;0.53;;;;;;;12.61;100.00;98737.88;5060937;28;20196;-66
2022/11/20 03:07:05;;;;;;;0.60;0.60;;;;;;;12.59;100.00;98739.69;5053552;28;20204;-64
2022/11/20 03:09:32;;;;;;;0.97;0.97;;;;;;;12.61;100.00;98743.84;5059307;28;20216;-63
2022/11/20 03:11:58;;;;;;;0.57;0.57;;;;;;;12.71;100.00;98748.53;5056491;28;20254;-63
2022/11/20 03:14:25;;;;;;;0.50;0.50;;;;;;;12.76;100.00;98737.13;5059596;28;20201;-63
2022/11/20 03:16:53;;;;;;;0.50;0.50;;;;;;;12.80;100.00;98727.50;5059018;28;20242;-63
2022/11/20 03:19:20;;;;;;;0.90;0.90;;;;;;;12.85;100.00;98710.09;5057080;28;20205;-64
2022/11/20 03:21:47;;;;;;;0.73;0.73;;;;;;;13.04;100.00;98721.13;5053685;28;20208;-65
2022/11/20 03:24:14;;;;;;;0.60;0.60;;;;;;;13.11;100.00;98712.22;5061461;28;20215;-66
2022/11/20 03:26:41;;;;;;;1.23;1.23;;;;;;;13.17;100.00;98714.47;5055854;28;20201;-64
2022/11/20 03:29:08;;;;;;;0.50;0.50;;;;;;;13.25;100.00;98706.38;5060918;28;20616;-64
2022/11/20 03:31:36;;;;;;;0.50;0.50;;;;;;;13.18;100.00;98693.00;5057732;28;21139;-63
2022/11/20 03:34:05;;;;;;;0.40;0.40;;;;;;;13.56;100.00;98714.16;5053173;28;20273;-64
2022/11/20 03:36:32;;;;;;;0.50;0.50;;;;;;;13.72;100.00;98727.03;5055952;28;20741;-65
2022/11/20 03:39:00;;;;;;;0.50;0.50;;;;;;;13.78;100.00;98729.28;5055213;28;20193;-64
2022/11/20 03:41:28;;;;;;;0.53;0.53;;;;;;;13.89;100.00;98737.28;5059997;28;20212;-63
2022/11/20 03:43:57;;;;;;;0.60;0.60;;;;;;;13.97;100.00;98750.56;5057291;28;20196;-64
2022/11/20 03:46:24;;;;;;;0.50;0.50;;;;;;;13.99;100.00;98753.91;5059437;28;20231;-63
2022/11/20 03:48:51;;;;;;;0.40;0.40;;;;;;;14.00;100.00;98729.78;5058298;28;20707;-64
2022/11/20 03:51:21;;;;;;;0.60;0.60;;;;;;;14.10;100.00;98731.78;5056359;28;20723;-64
2022/11/20 03:53:49;;;;;;;0.47;0.47;;;;;;;14.13;100.00;98730.78;5057339;28;21398;-63
2022/11/20 03:56:18;;;;;;;0.50;0.50;;;;;;;14.18;100.00;98739.09;5056204;28;20259;-64
2022/11/20 03:58:45;;;;;;;0.50;0.50;;;;;;;14.20;100.00;98737.25;5055330;28;20192;-63
2022/11/20 04:01:14;;;;;;;0.67;0.67;;;;;;;14.19;100.00;98731.25;5058045;28;20209;-64
2022/11/20 04:03:42;;;;;;;0.60;0.60;;;;;;;14.27;100.00;98727.44;5055236;28;20250;-63
2022/11/20 04:06:12;;;;;;;0.60;0.60;;;;;;;14.29;100.00;98735.91;5055887;28;20205;-63
2022/11/20 04:08:40;;;;;;;0.60;0.60;;;;;;;14.33;100.00;98737.41;5053684;28;20202;-67
2022/11/20 04:11:12;;;;;;;0.67;0.67;;;;;;;14.35;100.00;98741.56;5049877;28;20201;-64
2022/11/20 04:13:39;;;;;;;0.40;0.40;;;;;;;14.37;100.00;98742.34;5055074;28;20208;-64
2022/11/20 04:16:07;;;;;;;0.50;0.50;;;;;;;14.39;100.00;98743.06;5058686;28;20253;-66
2022/11/20 04:18:35;;;;;;;0.50;0.50;;;;;;;14.45;100.00;98750.47;5063034;28;20299;-64
2022/11/20 04:21:02;;;;;;;0.70;0.70;;;;;;;14.48;100.00;98752.88;5054532;28;20204;-65
2022/11/20 04:23:29;;;;;;;0.50;0.50;;;;;;;14.52;100.00;98745.78;5058702;28;20192;-65
2022/11/20 04:26:02;;;;;;;0.43;0.43;;;;;;;14.54;100.00;98746.56;5059854;28;20224;-64
2022/11/20 04:28:29;;;;;;;0.50;0.50;;;;;;;14.60;100.00;98730.72;5052859;28;20209;-64
2022/11/20 04:31:02;;;;;;;0.50;0.50;;;;;;;14.65;100.00;98734.69;5051665;28;20213;-64
2022/11/20 04:33:28;;;;;;;0.57;0.57;;;;;;;14.68;100.00;98739.69;5064525;28;20246;-65
2022/11/20 04:35:55;;;;;;;0.37;0.37;;;;;;;14.78;100.00;98734.00;5058188;28;20206;-66
2022/11/20 04:38:22;;;;;;;0.40;0.40;;;;;;;14.69;100.00;98723.28;5058153;28;20672;-67
2022/11/20 04:40:49;;;;;;;0.40;0.40;;;;;;;14.79;100.00;98736.50;5053963;28;20667;-66
2022/11/20 04:43:17;;;;;;;0.50;0.50;;;;;;;14.68;100.00;98738.84;5054559;28;20656;-65
2022/11/20 04:45:43;;;;;;;0.50;0.50;;;;;;;14.81;100.00;98754.44;5056344;28;20752;-67
2022/11/20 04:48:10;;;;;;;0.60;0.60;;;;;;;14.87;100.00;98752.34;5058146;28;20211;-67
2022/11/20 04:50:41;;;;;;;0.60;0.60;;;;;;;14.90;100.00;98743.59;5061331;28;20225;-68
2022/11/20 04:53:07;;;;;;;0.50;0.50;;;;;;;15.03;100.00;98747.13;5059400;28;20203;-66
2022/11/20 04:55:34;;;;;;;0.43;0.43;;;;;;;15.11;100.00;98747.53;5049378;28;20211;-65
2022/11/20 04:58:01;;;;;;;0.80;0.80;;;;;;;15.13;100.00;98733.59;5056221;28;20254;-65
2022/11/20 05:00:29;;;;;;;0.50;0.50;;;;;;;15.20;100.00;98744.38;5065080;28;20242;-66
2022/11/20 05:02:56;;;;;;;0.50;0.50;;;;;;;15.21;100.00;98748.66;5056427;28;20338;-67
2022/11/20 05:05:23;;;;;;;0.50;0.50;;;;;;;15.28;100.00;98736.19;5060505;28;20253;-67
2022/11/20 05:07:49;;;;;;;1.03;1.03;;;;;;;15.21;100.00;98725.41;5054291;28;20200;-66
2022/11/20 05:10:16;;;;;;;0.50;0.50;;;;;;;15.22;100.00;98740.78;5064240;28;20212;-65
2022/11/20 05:12:43;;;;;;;0.57;0.57;;;;;;;15.23;100.00;98746.78;5055457;28;20286;-64
2022/11/20 05:15:10;;;;;;;0.40;0.40;;;;;;;15.34;100.00;98752.16;5058508;28;20200;-64
2022/11/20 05:17:38;;;;;;;0.50;0.50;;;;;;;15.29;100.00;98741.25;5052524;28;20255;-64
2022/11/20 05:20:06;;;;;;;0.50;0.50;;;;;;;15.37;100.00;98754.56;5060793;28;20195;-67
2022/11/20 05:22:33;;;;;;;0.30;0.30;;;;;;;15.37;100.00;98759.72;5056855;28;20673;-64
2022/11/20 05:25:00;;;;;;;0.50;0.50;;;;;;;15.35;100.00;98747.81;5054777;28;20268;-64
2022/11/20 05:27:26;;;;;;;0.40;0.40;;;;;;;15.38;100.00;98745.88;5060368;28;20201;-64
2022/11/20 05:29:53;;;;;;;0.50;0.50;;;;;;;15.43;100.00;98750.78;5063549;28;20228;-64
2022/11/20 05:32:20;;;;;;;0.50;0.50;;;;;;;15.33;100.00;98747.91;5054658;28;20201;-64
2022/11/20 05:34:48;;;;;;;0.40;0.40;;;;;;;15.39;100.00;98752.69;5065755;28;20202;-65
2022/11/20 05:37:15;;;;;;;0.40;0.40;;;;;;;15.42;100.00;98742.19;5061044;28;20211;-66
2022/11/20 05:39:42;;;;;;;0.50;0.50;;;;;;;15.43;100.00;98745.59;5056952;28;20194;-64
2022/11/20 05:44:52;;;;;;;0.60;0.60;;;;;;;15.37;100.00;98751.97;5048090;28;20259;-66
2022/11/20 05:47:19;;;;;;;0.40;0.40;;;;;;;15.39;100.00;98757.88;5054302;28;20261;-67
2022/11/20 05:49:47;;;;;;;0.60;0.60;;;;;;;15.40;100.00;98748.38;5056916;28;20232;-65
2022/11/20 05:52:14;;;;;;;0.47;0.47;;;;;;;15.40;100.00;98758.69;5055804;28;20208;-68
2022/11/20 05:54:41;;;;;;;0.50;0.50;;;;;;;15.34;100.00;98767.66;5057391;28;20204;-65
2022/11/20 05:57:10;;;;;;;0.47;0.47;;;;;;;15.38;100.00;98769.09;5058360;28;20197;-65
2022/11/20 05:59:36;;;;;;;0.60;0.60;;;;;;;15.39;100.00;98757.03;5061569;28;20200;-65
2022/11/20 06:02:03;;;;;;;0.50;0.50;;;;;;;15.40;100.00;98759.53;5061896;28;20623;-65
2022/11/20 06:04:30;;;;;;;0.40;0.40;;;;;;;15.35;100.00;98750.41;5060549;28;20219;-66
2022/11/20 06:06:58;;;;;;;0.43;0.43;;;;;;;15.34;100.00;98759.91;5059500;28;20207;-65
2022/11/20 06:09:25;;;;;;;0.50;0.50;;;;;;;15.28;100.00;98759.44;5056622;28;20278;-64
2022/11/20 06:11:52;;;;;;;0.40;0.40;;;;;;;15.33;100.00;98762.56;5057665;28;20602;-67
2022/11/20 06:14:19;;;;;;;0.50;0.50;;;;;;;15.37;100.00;98762.31;5061119;28;20208;-64
2022/11/20 06:16:45;;;;;;;0.47;0.47;;;;;;;15.36;100.00;98773.53;5059945;28;20208;-64
2022/11/20 06:19:12;;;;;;;0.40;0.40;;;;;;;15.36;100.00;98773.53;5058536;28;20258;-65
2022/11/20 06:21:39;;;;;;;0.50;0.50;;;;;;;15.34;100.00;98774.56;5062855;28;20204;-65
2022/11/20 06:24:09;;;;;;;0.50;0.50;;;;;;;15.34;100.00;98790.91;5059619;28;20198;-64
2022/11/20 06:26:37;;;;;;;0.50;0.50;;;;;;;15.35;100.00;98808.03;5060420;28;20673;-65
2022/11/20 06:29:04;;;;;;;0.50;0.50;;;;;;;15.33;100.00;98804.72;5062429;28;20207;-64
2022/11/20 06:31:32;;;;;;;1.03;1.03;;;;;;;15.19;100.00;98792.59;5063265;28;20273;-66
2022/11/20 06:33:59;;;;;;;0.60;0.60;;;;;;;15.18;100.00;98790.13;5057355;28;20278;-66
2022/11/20 06:36:26;;;;;;;0.50;0.50;;;;;;;15.05;100.00;98789.19;5061674;28;20267;-67
2022/11/20 06:38:52;;;;;;;0.43;0.43;;;;;;;15.07;100.00;98813.16;5055317;28;20570;-64
2022/11/20 06:41:23;;;;;;;0.50;0.50;;;;;;;15.12;100.00;98819.69;5059564;28;20202;-64
2022/11/20 06:43:50;;;;;;;0.57;0.57;;;;;;;15.16;100.00;98810.03;5064844;28;20223;-64
2022/11/20 06:46:19;;;;;;;0.60;0.60;;;;;;;15.23;100.00;98819.09;5051703;28;20227;-64
2022/11/20 06:48:46;;;;;;;0.40;0.40;;;;;;;15.33;100.00;98803.88;5054874;28;20288;-64
2022/11/20 06:51:13;;;;;;;0.33;0.33;;;;;;;15.30;100.00;98814.41;5056140;28;20219;-64
2022/11/20 06:53:40;;;;;;;0.43;0.43;;;;;;;15.26;100.00;98803.41;5063588;28;20204;-65
2022/11/20 06:56:07;;;;;;;0.60;0.60;;;;;;;15.32;100.00;98808.22;5059264;28;20688;-66
2022/11/20 06:58:36;;;;;;;0.50;0.50;;;;;;;15.30;100.00;98789.41;5053663;28;20204;-64
2022/11/20 07:01:05;;;;;;;0.50;0.50;;;;;;;15.41;100.00;98792.16;5050402;28;20200;-65
2022/11/20 07:03:32;;;;;;;0.40;0.40;;;;;;;15.50;100.00;98799.44;5045571;28;20206;-65
2022/11/20 07:06:00;;;;;;;0.60;0.60;;;;;;;15.56;100.00;98795.63;5043407;28;22116;-66
2022/11/20 07:08:27;;;;;;;0.47;0.47;;;;;;;15.63;100.00;98797.78;5044112;28;20196;-65
2022/11/20 07:10:58;;;;;;;0.60;0.60;;;;;;;15.74;100.00;98790.19;5046805;28;20221;-68
2022/11/20 07:13:25;;;;;;;0.40;0.40;;;;;;;15.77;100.00;98798.69;5053817;28;20752;-65
2022/11/20 07:15:53;;;;;;;0.60;0.60;;;;;;;15.84;100.00;98805.13;5052282;28;20201;-68
2022/11/20 07:18:20;;;;;;;0.50;0.50;;;;;;;15.93;100.00;98799.41;5056579;28;20224;-66
2022/11/20 07:20:47;;;;;;;0.50;0.50;;;;;;;15.96;100.00;98804.41;5064132;28;20208;-67
2022/11/20 07:23:13;;;;;;;0.67;0.67;;;;;;;15.99;100.00;98809.38;5055201;28;20201;-67
2022/11/20 07:25:40;;;;;;;0.60;0.60;;;;;;;15.96;100.00;98799.22;5062825;28;21066;-64
2022/11/20 07:28:07;;;;;;;0.60;0.60;;;;;;;16.14;100.00;98816.19;5056757;28;20201;-64
2022/11/20 07:30:34;;;;;;;0.60;0.60;;;;;;;16.20;100.00;98823.56;5059121;28;20220;-64
2022/11/20 07:33:02;;;;;;;0.50;0.50;;;;;;;16.30;100.00;98819.47;5058481;28;20269;-67
2022/11/20 07:35:28;;;;;;;0.40;0.40;;;;;;;16.20;100.00;98792.53;5059541;28;20642;-67
2022/11/20 07:37:55;;;;;;;0.60;0.60;;;;;;;16.33;100.00;98814.09;5065347;28;20199;-66
2022/11/20 07:40:22;;;;;;;0.60;0.60;;;;;;;16.18;100.00;98784.03;5063616;28;20196;-64
2022/11/20 07:42:49;;;;;;;0.50;0.50;;;;;;;16.40;100.00;98817.97;5063156;28;20194;-64
2022/11/20 07:45:16;;;;;;;0.47;0.47;;;;;;;16.43;100.00;98828.13;5056009;28;20220;-64
2022/11/20 07:47:43;;;;;;;0.63;0.63;;;;;;;16.47;100.00;98811.50;5055752;28;20675;-65
2022/11/20 07:50:12;;;;;;;0.80;0.80;;;;;;;16.46;100.00;98814.16;5062302;28;20220;-65
2022/11/20 07:52:39;;;;;;;0.60;0.60;;;;;;;16.45;100.00;98802.16;5055626;28;20207;-64
2022/11/20 07:55:07;;;;;;;0.60;0.60;;;;;;;16.52;100.00;98809.44;5052838;28;20206;-65
2022/11/20 07:57:35;;;;;;;0.40;0.40;;;;;;;16.49;100.00;98809.63;5043925;28;20254;-65
2022/11/20 08:00:02;;;;;;;0.50;0.50;;;;;;;16.50;100.00;98832.00;5043163;28;20205;-64
2022/11/20 08:02:29;;;;;;;0.52;0.52;;;;;;;16.48;100.00;98818.31;5047286;28;20473;-68
2022/11/20 08:04:59;;;;;;;0.47;0.47;;;;;;;16.42;100.00;98823.88;5058690;28;20443;-64
2022/11/20 08:07:30;;;;;;;0.70;0.70;;;;;;;16.53;100.00;98820.63;5044928;28;20231;-64
2022/11/20 08:09:57;;;;;;;0.50;0.50;;;;;;;16.47;100.00;98819.25;5055336;28;20207;-64
2022/11/20 08:15:10;;;;;;;0.47;0.47;;;;;;;16.45;100.00;98808.16;5054211;28;20257;-64
2022/11/20 08:17:38;;;;;;;0.47;0.47;;;;;;;16.47;100.00;98811.50;5057388;28;20251;-65
2022/11/20 08:20:05;;;;;;;0.50;0.50;;;;;;;16.52;100.00;98819.78;5054236;28;20195;-64
2022/11/20 08:22:34;;;;;;;0.60;0.60;;;;;;;16.48;100.00;98812.31;5058768;28;20673;-65
2022/11/20 08:25:01;;;;;;;0.40;0.40;;;;;;;16.47;100.00;98810.66;5058630;28;20204;-65
2022/11/20 08:27:28;;;;;;;0.50;0.50;;;;;;;16.46;100.00;98809.00;5049614;28;20200;-65
2022/11/20 08:29:54;;;;;;;0.30;0.30;;;;;;;16.53;100.00;98810.25;5061137;28;20204;-64
2022/11/20 08:32:21;;;;;;;0.50;0.50;;;;;;;16.53;100.00;98821.44;5053566;28;20215;-64
2022/11/20 08:34:48;;;;;;;0.60;0.60;;;;;;;16.66;100.00;98826.72;5061667;28;20648;-65
2022/11/20 08:37:15;;;;;;;0.50;0.50;;;;;;;16.67;100.00;98802.50;5057780;28;20196;-65
2022/11/20 08:39:43;;;;;;;0.90;0.90;;;;;;;16.72;100.00;98785.72;5057903;28;20204;-65
2022/11/20 08:42:10;;;;;;;0.70;0.70;;;;;;;16.92;100.00;98796.53;5058970;28;20244;-64
2022/11/20 08:44:36;;;;;;;0.67;0.67;;;;;;;17.03;100.00;98801.84;5060397;28;20211;-64
2022/11/20 08:47:03;;;;;;;0.40;0.40;;;;;;;17.07;100.00;98800.72;5051722;28;20200;-64
2022/11/20 08:49:30;;;;;;;0.60;0.60;;;;;;;17.13;100.00;98805.47;5056887;28;20672;-64
2022/11/20 08:51:58;;;;;;;0.50;0.50;;;;;;;17.23;100.00;98809.94;5059907;28;20235;-64
2022/11/20 08:54:24;;;;;;;0.40;0.40;;;;;;;17.26;100.00;98807.16;5062875;28;20660;-64
2022/11/20 08:56:53;;;;;;;0.50;0.50;;;;;;;17.40;100.00;98811.41;5047110;28;20201;-65
2022/11/20 08:59:19;;;;;;;0.50;0.50;;;;;;;17.53;100.00;98812.25;5050579;28;20235;-65
2022/11/20 09:01:46;;;;;;;0.60;0.60;;;;;;;17.63;100.00;98810.75;5062261;28;20208;-65
2022/11/20 09:04:14;;;;;;;0.50;0.50;;;;;;;17.66;100.00;98810.53;5067035;28;20226;-64
2022/11/20 09:06:41;;;;;;;0.47;0.47;;;;;;;17.77;100.00;98808.00;5054874;28;20196;-65
2022/11/20 09:09:07;;;;;;;0.50;0.50;;;;;;;17.98;100.00;98810.06;5069299;28;20204;-65
2022/11/20 09:11:35;;;;;;;0.40;0.40;;;;;;;18.08;100.00;98805.88;5061414;28;20220;-65
2022/11/20 09:14:04;;;;;;;0.43;0.43;;;;;;;18.15;100.00;98801.94;5063303;28;20671;-65
2022/11/20 09:16:31;;;;;;;0.73;0.73;;;;;;;18.15;100.00;98770.81;5064490;28;20676;-65
2022/11/20 09:18:57;;;;;;;0.50;0.50;;;;;;;18.46;100.00;98780.63;5062031;28;20626;-65
2022/11/20 09:21:24;;;;;;;0.77;0.77;;;;;;;18.58;100.00;98769.41;5063152;28;20549;-65
2022/11/20 09:23:51;;;;;;;0.50;0.50;;;;;;;18.67;100.00;98773.94;5059489;28;20672;-65
2022/11/20 09:26:19;;;;;;;0.40;0.40;;;;;;;18.76;100.00;98775.88;5064368;28;20223;-65
2022/11/20 09:28:46;;;;;;;0.50;0.50;;;;;;;18.87;100.00;98775.88;5058906;28;20756;-65
2022/11/20 09:31:22;;;;;;;0.47;0.47;;;;;;;18.91;100.00;98762.66;5067569;28;20212;-65
2022/11/20 09:33:49;;;;;;;0.40;0.40;;;;;;;18.96;100.00;98768.38;5073883;28;20200;-64
2022/11/20 09:36:18;;;;;;;0.47;0.47;;;;;;;19.04;100.00;98761.66;5058702;28;20192;-65
2022/11/20 09:38:45;;;;;;;0.50;0.50;;;;;;;19.11;100.00;98749.03;5052904;28;20200;-65
2022/11/20 09:41:36;;;;;;;0.60;0.60;;;;;;;19.17;100.00;98745.97;5054246;28;20270;-65
2022/11/20 09:44:14;;;;;;;0.50;0.50;;;;;;;19.14;100.00;98738.41;5066384;28;20631;-65
2022/11/20 09:46:50;;;;;;;0.50;0.50;;;;;;;19.09;100.00;98748.31;5057902;28;20229;-65
2022/11/20 09:49:28;;;;;;;0.40;0.40;;;;;;;19.18;100.00;98747.63;5063698;28;20203;-65
2022/11/20 09:51:58;;;;;;;0.40;0.40;;;;;;;19.28;100.00;98743.41;5064621;28;20220;-65
2022/11/20 09:54:31;;;;;;;0.40;0.40;;;;;;;19.37;100.00;98745.28;5057290;28;20295;-65
2022/11/20 09:57:00;;;;;;;0.70;0.70;;;;;;;19.36;100.00;98746.22;5055271;28;20205;-65
2022/11/20 09:59:36;;;;;;;0.50;0.50;;;;;;;19.46;100.00;98739.41;5064808;28;20212;-65
2022/11/20 10:02:17;;;;;;;0.70;0.70;;;;;;;19.59;100.00;98739.28;5056961;28;20193;-65
2022/11/20 10:04:47;;;;;;;0.50;0.50;;;;;;;19.69;100.00;98732.44;5056457;28;20680;-65
2022/11/20 10:07:20;;;;;;;0.60;0.60;;;;;;;19.64;100.00;98719.81;5061232;28;20204;-64
2022/11/20 10:09:53;;;;;;;0.37;0.37;;;;;;;19.76;100.00;98744.03;5067099;28;20245;-65
2022/11/20 10:12:28;;;;;;;0.50;0.50;;;;;;;19.78;100.00;98742.94;5070935;28;20595;-65
2022/11/20 10:15:13;;;;;;;0.40;0.40;;;;;;;19.82;100.00;98727.94;5058942;28;20204;-65
2022/11/20 10:17:56;;;;;;;0.40;0.40;;;;;;;20.06;100.00;98730.38;5064664;28;20196;-65
2022/11/20 10:20:30;;;;;;;0.43;0.43;;;;;;;20.17;100.00;98725.97;5054400;28;20687;-65
2022/11/20 10:23:32;;;;;;;0.40;0.40;;;;;;;20.41;99.65;98729.25;5066171;28;20205;-65
2022/11/20 10:26:02;;;;;;;0.40;0.40;;;;;;;20.52;98.98;98728.34;5044786;28;20274;-65
2022/11/20 10:28:40;;;;;;;0.37;0.37;;;;;;;20.51;99.09;98726.72;5067704;28;20636;-65
2022/11/20 10:31:15;;;;;;;0.40;0.40;;;;;;;20.59;99.27;98719.09;5052787;28;20221;-65
2022/11/20 10:33:49;;;;;;;0.40;0.40;;;;;;;20.70;99.68;98716.44;5066510;28;20683;-65
2022/11/20 10:36:20;;;;;;;0.40;0.40;;;;;;;20.74;100.00;98711.81;5058022;28;20626;-66
2022/11/20 10:38:52;;;;;;;0.93;0.93;;;;;;;20.74;99.71;98704.81;5064425;28;20202;-65
2022/11/20 10:41:25;;;;;;;0.40;0.40;;;;;;;20.74;98.71;98707.41;5050546;28;20201;-65
2022/11/20 10:44:00;;;;;;;0.40;0.40;;;;;;;20.77;98.58;98703.75;5053164;28;20195;-65
2022/11/20 10:46:37;;;;;;;0.30;0.30;;;;;;;20.67;98.52;98695.88;5061432;28;20228;-65
2022/11/20 10:49:16;;;;;;;1.37;1.27;;;;;;;20.70;98.55;98695.63;5052830;28;20651;-65
2022/11/20 10:51:55;;;;;;;0.30;0.30;;;;;;;20.73;98.29;98687.53;5061009;28;20225;-65
2022/11/20 10:54:32;;;;;;;0.40;0.40;;;;;;;20.76;97.03;98694.28;5064837;28;20209;-65
2022/11/20 10:57:11;;;;;;;0.43;0.43;;;;;;;20.78;97.16;98682.75;5046649;28;20758;-65
2022/11/20 10:59:52;;;;;;;0.40;0.40;;;;;;;20.85;96.70;98691.72;5056610;28;20663;-65
2022/11/20 11:02:21;;;;;;;0.33;0.33;;;;;;;20.86;96.27;98688.19;5059655;28;20199;-65
2022/11/20 11:04:52;;;;;;;0.40;0.40;;;;;;;20.92;96.77;98682.44;5061377;28;20203;-65
2022/11/20 11:07:23;;;;;;;0.40;0.40;;;;;;;20.97;96.36;98689.06;5065164;28;20209;-65
2022/11/20 11:09:53;;;;;;;0.40;0.40;;;;;;;20.97;95.71;98683.84;5063332;28;20197;-65
2022/11/20 11:12:20;;;;;;;1.37;1.37;;;;;;;20.88;95.52;98677.59;5061063;28;20217;-66
2022/11/20 11:14:51;;;;;;;0.43;0.43;;;;;;;20.84;96.30;98666.63;5065168;28;20649;-65
2022/11/20 11:17:22;;;;;;;0.60;0.60;;;;;;;20.82;95.68;98655.50;5057050;28;20193;-65
2022/11/20 11:20:07;;;;;;;1.03;1.03;;;;;;;20.91;95.96;98662.53;5062718;28;20259;-65
2022/11/20 11:22:36;;;;;;;0.30;0.30;;;;;;;20.98;96.12;98662.03;5061184;28;20203;-65
2022/11/20 11:25:03;;;;;;;0.80;0.80;;;;;;;20.94;95.77;98662.28;5066401;28;20202;-65
2022/11/20 11:27:30;;;;;;;0.40;0.40;;;;;;;20.95;96.98;98648.31;5063692;28;20206;-66
2022/11/20 11:30:14;;;;;;;0.70;0.70;;;;;;;21.00;97.15;98655.75;5068068;28;20319;-65
2022/11/20 11:32:41;;;;;;;0.40;0.40;;;;;;;21.04;97.36;98653.69;5057789;28;20218;-65
2022/11/20 11:35:21;;;;;;;0.70;0.70;;;;;;;21.03;97.58;98652.88;5065152;28;20659;-65
2022/11/20 11:37:48;;;;;;;0.97;0.97;;;;;;;21.08;98.13;98657.69;5053222;28;20203;-65
2022/11/20 11:40:16;;;;;;;0.63;0.63;;;;;;;21.07;97.79;98643.84;5065765;28;20256;-66
2022/11/20 11:42:44;;;;;;;2.83;1.37;;;;;;;20.97;96.45;98635.13;5055569;28;20195;-65
2022/11/20 11:45:17;;;;;;;0.50;0.50;;;;;;;21.05;96.61;98642.31;5055052;28;20318;-65